Tiempo atmosférico en la estación meteorológica de Pozuelo De Tabara, Zamora (711 m.)



Fecha
DESCASC
Temp. máxima en grados centígrados (hora)
DESCASC
Temp. mínima en grados centígrados (hora)
DESCASC
Temp. media en grados centígrados
DESCASC
Racha de viento máxima en m/sg (hora)
DESCASC
Velocidad máxima media en intervalos de 10 minutos(hora)
DESCASC
Precipitaciones diarias en mm
DESCASC
Precipitaciones de 00:00 a 06:00 en mm
DESCASC
Precipitaciones de 06:00 a 12:00 en mm
DESCASC
Precipitaciones de 12:00 a 18:00 en mm
DESCASC
Precipitaciones de 18:00 a 24:00 en mm
DESCASC
08-12-2019 10.5 (16:20) 0 (04:00) 5.3 8.06 (17:30) 5.83 (17:20) 2.8 0.2 1 1.6 0
07-12-2019 8.3 (15:00) -0.2 (08:40) 4.1 4.72 (13:30) 3.61 (16:40) 0 0 0 0 0
06-12-2019 11.3 (16:10) -0.7 (07:50) 5.3 4.17 (02:30) 3.33 (03:10) 0 0 0 0 0
05-12-2019 9.7 (16:40) -1.3 (-00:0) 4.2 11.67 (14:30) 7.5 (14:30) 0 0 0 0 0
04-12-2019 9.6 (16:00) -1.9 (04:10) 3.9 6.94 (13:50) 4.72 (11:40) 0 0 0 0 0
03-12-2019 5.4 (16:20) -2 (-00:0) 1.7 10.28 (11:30) 7.78 (12:40) 0 0 0 0 0
02-12-2019 10.2 (15:10) 1.1 (00:00) 5.6 13.06 (12:50) 9.44 (15:30) 0 0 0 0 0
01-12-2019 8.7 (13:30) 4.9 (00:00) 6.8 9.44 (16:00) 7.22 (16:00) 6 2.2 3.8 0 0
30-11-2019 13.1 (11:20) 4.7 (00:00) 8.9 15.28 (11:30) 10.28 (11:30) 4.4 0.6 3.6 0.2 0
29-11-2019 14.6 (15:00) 9.2 (00:00) 11.9 7.22 (15:10) 5.28 (15:10) 3 0.6 0.2 0 2.2
28-11-2019 13.1 (13:50) 9.1 (00:00) 11.1 13.61 (15:50) 9.72 (09:40) 3.4 0.2 0.2 0.6 2.4
27-11-2019 10.7 (13:40) 7.4 (00:00) 9 14.44 (00:10) 9.17 (00:10) 1 0 0 0.8 0.2
26-11-2019 14.6 (14:50) 8.9 (00:00) 11.8 20.28 (16:20) 13.89 (16:20) 4.6 0 0.8 0.8 3
25-11-2019 12.8 (14:10) 9.6 (21:30) 11.2 12.78 (04:30) 8.89 (04:30) 0.2 0 0.2 0 0
24-11-2019 10.1 (23:59) 3.6 (00:00) 6.9 11.39 (11:00) 8.89 (12:20) 3.8 0 0 0 3.8
23-11-2019 11.6 (14:40) 4 (00:00) 7.8 20.83 (00:10) 14.72 (01:30) 0 0 0 0 0
22-11-2019 13.2 (14:30) 5.4 (00:00) 9.3 20.83 (12:30) 13.33 (22:40) 12.4 1.6 2.6 0.6 7.6
21-11-2019 10.6 (14:10) 3.7 (00:00) 7.2 11.11 (02:40) 8.61 (02:40) 2.6 0.6 2 0 0
20-11-2019 7.5 (16:30) 5.1 (05:10) 6.3 9.72 (22:10) 6.39 (22:10) 6.6 1.2 3.6 0.4 1.4
19-11-2019 8.7 (16:20) -2.9 (-00:0) 2.9 5.83 (16:10) 4.17 (16:40) 0 0 0 0 0
18-11-2019 11.5 (14:30) -0.3 (00:00) 5.6 10 (14:50) 5 (00:10) 0 0 0 0 0
17-11-2019 11.5 (16:00) 3.6 (00:00) 7.5 13.06 (15:50) 9.72 (12:10) 0 0 0 0 0
16-11-2019 9.6 (14:10) -1 (-00:0) 4.3 11.11 (16:20) 7.78 (16:30) 0 0 0 0 0
15-11-2019 9 (14:20) -0.2 (00:00) 4.4 11.11 (15:30) 7.5 (14:50) 0 0 0 0 0
14-11-2019 7.9 (00:20) 2.1 (00:00) 5 16.11 (16:00) 12.5 (16:00) 5.2 0.6 0 3 1.6
13-11-2019 15.5 (14:40) 7.1 (00:00) 11.3 15.56 (23:50) 10.83 (22:30) 1.4 1.4 0 0 0
12-11-2019 10.5 (14:50) 1.9 (00:00) 6.2 14.72 (21:20) 11.11 (21:30) 1.6 0 0 0 1.6

Gráficas

Temp. máximas Temp. mínimas Temp. medias Precipitaciones Rachas de viento máximas Velocidades máximas media en intervalos de 10 minutos

Datos horarios

Fecha y hora oficial Temperatura (ºC) Velocidad del viento (km/h) Dirección del viento Racha (km/h) Dirección de racha Precipitación (mm) Presión (hPa) Tendencia (hPa) Humedad (%)
2019-12-11 23:00:00 4.6 31 Oeste 45 Oeste 0 -- -- 89
2019-12-11 22:00:00 4.8 27 Oeste 39 Oeste 0 -- -- 87
2019-12-11 21:00:00 5.2 27 Oeste 41 Oeste 0 -- -- 84
2019-12-11 20:00:00 5.2 30 Oeste 40 Oeste 0 -- -- 83
2019-12-11 19:00:00 5.4 29 Oeste 44 Sudoeste 0 -- -- 80
2019-12-11 18:00:00 6 21 Oeste 41 Oeste 0 -- -- 72
2019-12-11 17:00:00 7.7 27 Oeste 49 Oeste 0 -- -- 62
2019-12-11 16:00:00 9.1 34 Oeste 44 Oeste 0 -- -- 56
2019-12-11 15:00:00 10.3 20 Oeste 28 Sudoeste 0 -- -- 53
2019-12-11 14:00:00 9.1 9 Sudoeste 27 Noroeste 0 -- -- 64
2019-12-11 13:00:00 9.9 7 Noroeste 15 Noroeste 0 -- -- 55
2019-12-11 12:00:00 8.3 10 Sudoeste 18 Oeste 0 -- -- 74
2019-12-11 11:00:00 6.9 13 Oeste 18 Oeste 0 -- -- 80
2019-12-11 10:00:00 5.2 11 Oeste 18 Noroeste 0 -- -- 90
2019-12-11 09:00:00 4.2 10 Noroeste 27 Oeste 0 -- -- 92
2019-12-11 08:00:00 4.7 15 Oeste 34 Sudoeste 0 -- -- 91
2019-12-11 07:00:00 4.6 13 Oeste 25 Oeste 0 -- -- 90
2019-12-11 06:00:00 4.7 4 Nordeste 22 Oeste 0 -- -- 87
2019-12-11 05:00:00 4.7 10 Oeste 21 Oeste 0 -- -- 84
2019-12-11 04:00:00 3 3 Norte 5 Noroeste 0 -- -- 89
2019-12-11 03:00:00 2.5 4 Sur 18 Oeste 0 -- -- 89
2019-12-11 02:00:00 3.9 10 Sudoeste 19 Oeste 0 -- -- 86
2019-12-11 01:00:00 3.9 12 Sudoeste 23 Sudoeste 0 -- -- 87
2019-12-11 00:00:00 4.2 14 Sudoeste 22 Sudoeste 0 -- -- 86
2019-12-10 23:00:00 4.5 8 Oeste 18 Oeste 0 -- -- 86
2019-12-10 22:00:00 4.3 7 Oeste 19 Oeste 0 -- -- 88
2019-12-10 21:00:00 5.4 15 Oeste 17 Oeste 0 -- -- 84
2019-12-10 20:00:00 6.2 11 Noroeste 17 Noroeste 0 -- -- 85
2019-12-10 19:00:00 5.4 4 Nordeste 8 Sudoeste 0 -- -- 91
2019-12-10 18:00:00 6.5 6 Sudoeste 17 Sur 0 -- -- 85
2019-12-10 17:00:00 6 13 Sur 19 Sur 0 -- -- 88
2019-12-10 16:00:00 6.2 10 Sudeste 18 Sudeste 0 -- -- 87
2019-12-10 15:00:00 6.8 13 Sudeste 17 Sudeste 0 -- -- 86
2019-12-10 14:00:00 5.6 9 Este 13 Este 0 -- -- 88
2019-12-10 13:00:00 3.1 3 Este 10 Este 0 -- -- 92
2019-12-10 12:00:00 1.6 6 Este 9 Sudeste 0 -- -- 94
2019-12-10 11:00:00 1.3 5 Este 9 Este 0 -- -- 94
2019-12-10 10:00:00 -0.6 5 Sudeste 8 Sudeste 0 -- -- 98
2019-12-10 09:00:00 -2 0 Calma 5 Noroeste 0 -- -- 97
2019-12-10 08:00:00 -2.8 0 Calma 2 Noroeste 0 -- -- 97
2019-12-10 07:00:00 -2.8 0 Calma 5 Este 0 -- -- 96
2019-12-10 06:00:00 -2.2 0 Calma 3 Noroeste 0 -- -- 95
2019-12-10 05:00:00 -1.2 3 Noroeste 9 Oeste 0 -- -- 96
2019-12-10 04:00:00 -1 4 Oeste 10 Oeste 0 -- -- 96
2019-12-10 03:00:00 -1.1 5 Noroeste 10 Oeste 0 -- -- 96
2019-12-10 02:00:00 -1.1 2 Norte 9 Noroeste 0 -- -- 95
2019-12-10 01:00:00 -0.5 3 Oeste 11 Este 0 -- -- 95
2019-12-10 00:00:00 0.4 10 Este 14 Sudeste 0 -- -- 94
2019-12-09 23:00:00 1 8 Oeste 13 Oeste 0 -- -- 94
2019-12-09 22:00:00 0.9 5 Noroeste 12 Oeste 0 -- -- 93
2019-12-09 21:00:00 1.3 7 Oeste 10 Noroeste 0 -- -- 94
2019-12-09 20:00:00 1.8 7 Noroeste 10 Oeste 0 -- -- 93
2019-12-09 19:00:00 3.4 6 Noroeste 10 Oeste 0 -- -- 90
2019-12-09 18:00:00 6.3 3 Noroeste 7 Este 0 -- -- 83
2019-12-09 17:00:00 8.4 3 Sudeste 14 Este 0 -- -- 75
2019-12-09 16:00:00 9.7 12 Este 21 Noroeste 0 -- -- 78
2019-12-09 15:00:00 10.2 14 Oeste 22 Oeste 0 -- -- 58
2019-12-09 14:00:00 10.5 14 Oeste 27 Oeste 0 -- -- 61
2019-12-09 13:00:00 10.2 19 Oeste 33 Oeste 0 -- -- 46
2019-12-09 12:00:00 7.4 20 Sudoeste 31 Noroeste 0 -- -- 75
2019-12-09 11:00:00 4.4 9 Oeste 27 Sudoeste 0.2 -- -- 90
2019-12-09 10:00:00 0.4 7 Sudoeste 21 Sudoeste 0 -- -- 99
2019-12-09 09:00:00 -1.5 0 Calma 4 Sudeste 0 -- -- 99
2019-12-09 08:00:00 -2 4 Este 8 Oeste 0 -- -- 98
2019-12-09 07:00:00 -1.4 6 Sudoeste 7 Sudoeste 0 -- -- 99
2019-12-09 06:00:00 -1.5 3 Norte 6 Noroeste 0 -- -- 98
2019-12-09 05:00:00 -1.8 2 Oeste 5 Nordeste 0 -- -- 98
2019-12-09 04:00:00 -1.8 3 Sudeste 4 Sudeste 0 -- -- 98
2019-12-09 03:00:00 -1.1 0 Calma 4 Norte 0 -- -- 97
2019-12-09 02:00:00 -0.6 5 Nordeste 8 Nordeste 0 -- -- 98
2019-12-09 01:00:00 0.2 0 Calma 2 Nordeste 0 -- -- 96
2019-12-09 00:00:00 1.5 0 Calma 10 Sudeste 0 -- -- 96
2019-12-08 23:00:00 3.6 3 Norte 14 Sudoeste 0 -- -- 95
2019-12-08 22:00:00 4.5 3 Oeste 6 Sudoeste 0 -- -- 94
2019-12-08 21:00:00 6.8 4 Oeste 13 Oeste 0 -- -- 96
2019-12-08 20:00:00 8.7 11 Oeste 22 Sudoeste 0 -- -- 95
2019-12-08 19:00:00 9 14 Oeste 26 Oeste 0 -- -- 96
2019-12-08 18:00:00 9.8 17 Oeste 29 Oeste 0 -- -- 95
2019-12-08 17:00:00 10.4 13 Oeste 22 Oeste 0 -- -- 94
2019-12-08 16:00:00 10.3 13 Oeste 20 Oeste 0.2 -- -- 95
2019-12-08 15:00:00 9.9 4 Oeste 24 Oeste 0 -- -- 95
2019-12-08 14:00:00 9.6 13 Oeste 23 Oeste 0.2 -- -- 97
2019-12-08 13:00:00 8.8 12 Oeste 16 Oeste 1.2 -- -- 99
2019-12-08 12:00:00 7.8 14 Oeste 21 Oeste 1 -- -- 99
2019-12-08 11:00:00 7.1 13 Oeste 22 Oeste 0 -- -- 100
2019-12-08 10:00:00 2.9 0 Calma 8 Este 0 -- -- 99
2019-12-08 09:00:00 2.2 3 Este 6 Sudeste 0 -- -- 99
2019-12-08 08:00:00 1.7 0 Calma 4 Sudeste 0 -- -- 99
2019-12-08 07:00:00 1.3 0 Calma 4 Sudeste 0 -- -- 99
2019-12-08 06:00:00 0.9 0 Calma 4 Oeste 0 -- -- 99
2019-12-08 05:00:00 0.4 0 Calma 5 Sudeste 0 -- -- 99
2019-12-08 04:00:00 0 4 Sudeste 5 Sudeste 0 -- -- 98
2019-12-08 03:00:00 0.5 0 Calma 9 Norte 0 -- -- 98
2019-12-08 02:00:00 0.7 3 Oeste 6 Sudoeste 0 -- -- 98
2019-12-08 01:00:00 1.1 0 Calma 3 Nordeste 0.2 -- -- 98
2019-12-08 00:00:00 1.5 0 Calma 2 Sur 0 -- -- 98
2019-12-07 23:00:00 1.9 0 Calma 3 Sudeste 0 -- -- 98
2019-12-07 22:00:00 2.6 0 Calma 3 Sudoeste 0 -- -- 97
2019-12-07 21:00:00 3.5 0 Calma -- -- 0 -- -- 97
2019-12-07 20:00:00 4.4 0 Calma 4 Noroeste 0 -- -- 97
2019-12-07 19:00:00 5 0 Calma 5 Sudoeste 0 -- -- 96
2019-12-07 18:00:00 5.8 3 Sur 13 Sudeste 0 -- -- 96
2019-12-07 17:00:00 6.5 10 Sudeste 16 Sudeste 0 -- -- 93
2019-12-07 16:00:00 7.8 8 Este 15 Este 0 -- -- 87
2019-12-07 15:00:00 8.3 10 Este 13 Este 0 -- -- 87
2019-12-07 14:00:00 6.7 10 Sudeste 17 Este 0 -- -- 96
2019-12-07 13:00:00 4.5 5 Este 8 Este 0 -- -- 98
2019-12-07 12:00:00 3.2 2 Oeste 8 Oeste 0 -- -- 98
2019-12-07 11:00:00 1.5 6 Noroeste 9 Noroeste 0 -- -- 98
2019-12-07 10:00:00 1.2 2 Nordeste 4 Sur 0 -- -- 98
2019-12-07 09:00:00 -0.1 0 Calma 8 Nordeste 0 -- -- 97
2019-12-07 08:00:00 0.2 0 Calma 4 Oeste 0 -- -- 97
2019-12-07 07:00:00 0.4 2 Noroeste 4 Noroeste 0 -- -- 97
2019-12-07 06:00:00 0.9 3 Oeste 6 Oeste 0 -- -- 96
2019-12-07 05:00:00 1.1 2 Noroeste 6 Norte 0 -- -- 96
2019-12-07 04:00:00 2.1 0 Calma 4 Noroeste 0 -- -- 96
2019-12-07 03:00:00 3 0 Calma 3 Oeste 0 -- -- 96
2019-12-07 02:00:00 2.8 2 Este 10 Oeste 0 -- -- 96
2019-12-07 01:00:00 1.6 3 Noroeste 9 Norte 0 -- -- 96
2019-12-07 00:00:00 2 2 Este 5 Noroeste 0 -- -- 95
2019-12-06 23:00:00 2.7 3 Noroeste 7 Noroeste 0 -- -- 94
2019-12-06 22:00:00 4.2 3 Noroeste 4 Noroeste 0 -- -- 94
2019-12-06 21:00:00 4.9 0 Calma 4 Noroeste 0 -- -- 94
2019-12-06 20:00:00 4.1 2 Sudoeste 5 Oeste 0 -- -- 90
2019-12-06 19:00:00 6.1 2 Este 6 Sudeste 0 -- -- 87
2019-12-06 18:00:00 7.9 3 Sur 10 Sudeste 0 -- -- 80
2019-12-06 17:00:00 10.4 3 Este 6 Sudeste 0 -- -- 69
2019-12-06 16:00:00 11 2 Este 7 Este 0 -- -- 66
2019-12-06 15:00:00 9.4 3 Sudeste 6 Sudeste 0 -- -- 72
2019-12-06 14:00:00 9.4 3 Este 8 Este 0 -- -- 70
2019-12-06 13:00:00 9.1 4 Norte 7 Norte 0 -- -- 70
2019-12-06 12:00:00 7.3 2 Este 6 Nordeste 0 -- -- 78
2019-12-06 11:00:00 5.3 4 Norte 8 Noroeste 0 -- -- 89
2019-12-06 10:00:00 2.3 5 Noroeste 8 Noroeste 0 -- -- 97
2019-12-06 09:00:00 -0.2 4 Noroeste 5 Noroeste 0 -- -- 97
2019-12-06 08:00:00 -0.7 3 Oeste 8 Sudeste 0 -- -- 96
2019-12-06 07:00:00 -0.2 7 Sudeste 9 Sudeste 0 -- -- 96
2019-12-06 06:00:00 0.3 3 Oeste 9 Oeste 0 -- -- 95
2019-12-06 05:00:00 1.3 6 Oeste 9 Oeste 0 -- -- 96
2019-12-06 04:00:00 1.2 9 Noroeste 13 Oeste 0 -- -- 95
2019-12-06 03:00:00 1.5 11 Oeste 15 Noroeste 0 -- -- 95
2019-12-06 02:00:00 1.9 7 Noroeste 13 Noroeste 0 -- -- 94
2019-12-06 01:00:00 2.6 8 Noroeste 12 Norte 0 -- -- 93
2019-12-06 00:00:00 3.4 8 Noroeste 12 Norte 0 -- -- 92
2019-12-05 23:00:00 4 6 Noroeste 13 Norte 0 -- -- 89
2019-12-05 22:00:00 5 5 Norte 11 Norte 0 -- -- 90
2019-12-05 21:00:00 5 7 Noroeste 12 Norte 0 -- -- 91
2019-12-05 20:00:00 5 5 Norte 13 Oeste 0 -- -- 89
2019-12-05 19:00:00 5.7 6 Noroeste 19 Nordeste 0 -- -- 85
2019-12-05 18:00:00 7.6 9 Nordeste 23 Este 0 -- -- 82
2019-12-05 17:00:00 9.1 19 Nordeste 31 Nordeste 0 -- -- 75
2019-12-05 16:00:00 9.2 22 Nordeste 37 Nordeste 0 -- -- 75
2019-12-05 15:00:00 9 24 Nordeste 42 Este 0 -- -- 76
2019-12-05 14:00:00 9.2 23 Este 42 Nordeste 0 -- -- 74
2019-12-05 13:00:00 7.7 18 Nordeste 29 Nordeste 0 -- -- 83
2019-12-05 12:00:00 6.1 14 Nordeste 24 Este 0 -- -- 88
2019-12-05 11:00:00 3.6 3 Nordeste 11 Nordeste 0 -- -- 94
2019-12-05 10:00:00 0.6 2 Noroeste 4 Norte 0 -- -- 96
2019-12-05 09:00:00 -1 3 Sudeste 4 Sudeste 0 -- -- 95
2019-12-05 08:00:00 -1.1 2 Oeste 5 Noroeste 0 -- -- 94
2019-12-05 07:00:00 0.2 2 Noroeste 13 Noroeste 0 -- -- 94
2019-12-05 06:00:00 0.1 10 Noroeste 13 Noroeste 0 -- -- 96
2019-12-05 05:00:00 -0.4 8 Noroeste 14 Oeste 0 -- -- 95
2019-12-05 04:00:00 -0.9 4 Oeste 10 Noroeste 0 -- -- 95
2019-12-05 03:00:00 -0.8 2 Oeste 5 Noroeste 0 -- -- 94
2019-12-05 02:00:00 -0.1 0 Calma 6 Sudeste 0 -- -- 93
2019-12-05 01:00:00 1.1 5 Sudeste 13 Sudeste 0 -- -- 94
2019-12-05 00:00:00 0.6 4 Sur 6 Sudeste 0 -- -- 92
2019-12-04 23:00:00 1.9 2 Noroeste 8 Norte 0 -- -- 88
2019-12-04 22:00:00 2.6 3 Noroeste 8 Noroeste 0 -- -- 91
2019-12-04 21:00:00 3.1 6 Noroeste 9 Oeste 0 -- -- 91
2019-12-04 20:00:00 3.5 9 Oeste 10 Oeste 0 -- -- 92
2019-12-04 19:00:00 4.5 4 Oeste 6 Noroeste 0 -- -- 89
2019-12-04 18:00:00 6.6 6 Norte 9 Noroeste 0 -- -- 85
2019-12-04 17:00:00 9.2 6 Norte 18 Nordeste 0 -- -- 75
2019-12-04 16:00:00 9.6 14 Nordeste 21 Nordeste 0 -- -- 70
2019-12-04 15:00:00 9.4 14 Nordeste 24 Nordeste 0 -- -- 70
2019-12-04 14:00:00 8.8 16 Nordeste 25 Nordeste 0 -- -- 71
2019-12-04 13:00:00 8.1 13 Nordeste 25 Nordeste 0 -- -- 71
2019-12-04 12:00:00 6.8 13 Norte 22 Norte 0 -- -- 72
2019-12-04 11:00:00 4.5 13 Norte 18 Noroeste 0 -- -- 79
2019-12-04 10:00:00 2 9 Noroeste 14 Noroeste 0 -- -- 87
2019-12-04 09:00:00 0.8 6 Noroeste 14 Noroeste 0 -- -- 89
2019-12-04 08:00:00 0.3 10 Noroeste 13 Noroeste 0 -- -- 94
2019-12-04 07:00:00 -1 8 Noroeste 14 Noroeste 0 -- -- 93
2019-12-04 06:00:00 -1.2 10 Noroeste 14 Noroeste 0 -- -- 94
2019-12-04 05:00:00 -1.1 10 Noroeste 15 Noroeste 0 -- -- 94
2019-12-04 04:00:00 -1.8 7 Noroeste 12 Oeste 0 -- -- 94
2019-12-04 03:00:00 -1.3 10 Oeste 14 Noroeste 0 -- -- 94
2019-12-04 02:00:00 -1.6 5 Noroeste 9 Noroeste 0 -- -- 94
2019-12-04 01:00:00 -1.2 2 Noroeste 6 Noroeste 0 -- -- 93
2019-12-04 00:00:00 -1 4 Noroeste 6 Noroeste 0 -- -- 91
2019-12-03 23:00:00 -0.1 2 Noroeste 6 Noroeste 0 -- -- 90
2019-12-03 22:00:00 0.3 2 Oeste 5 Oeste 0 -- -- 93
2019-12-03 21:00:00 -0.1 0 Calma 5 Noroeste 0 -- -- 92
2019-12-03 20:00:00 0.4 4 Noroeste 11 Nordeste 0 -- -- 87
2019-12-03 19:00:00 1.4 4 Norte 13 Nordeste 0 -- -- 86
2019-12-03 18:00:00 3.2 8 Nordeste 18 Nordeste 0 -- -- 80
2019-12-03 17:00:00 5.1 14 Este 25 Este 0 -- -- 73
2019-12-03 16:00:00 5.2 17 Este 30 Nordeste 0 -- -- 72
2019-12-03 15:00:00 5 18 Este 30 Nordeste 0 -- -- 72
2019-12-03 14:00:00 5.3 22 Este 37 Este 0 -- -- 72
2019-12-03 13:00:00 4.9 23 Este 37 Este 0 -- -- 73
2019-12-03 12:00:00 4.9 22 Nordeste 37 Nordeste 0 -- -- 73
2019-12-03 11:00:00 3.7 15 Nordeste 22 Nordeste 0 -- -- 79
2019-12-03 10:00:00 1.6 4 Nordeste 8 Nordeste 0 -- -- 89
2019-12-03 09:00:00 -0.7 4 Oeste 9 Noroeste 0 -- -- 92
2019-12-03 08:00:00 -2 4 Noroeste 6 Noroeste 0 -- -- 93
2019-12-03 07:00:00 -1.7 2 Noroeste 3 Norte 0 -- -- 94
2019-12-03 06:00:00 -1.3 0 Calma 3 Nordeste 0 -- -- 93
2019-12-03 05:00:00 -0.9 0 Calma 5 Nordeste 0 -- -- 91
2019-12-03 04:00:00 0 4 Nordeste 9 Nordeste 0 -- -- 92
2019-12-03 03:00:00 -0.5 0 Calma 5 Nordeste 0 -- -- 89
2019-12-03 02:00:00 0.8 5 Nordeste 18 Nordeste 0 -- -- 86
2019-12-03 01:00:00 1.6 10 Este 21 Este 0 -- -- 84
2019-12-03 00:00:00 1.6 12 Este 19 Este 0 -- -- 85
2019-12-02 23:00:00 2 12 Este 20 Este 0 -- -- 83
2019-12-02 22:00:00 2.7 10 Este 29 Este 0 -- -- 82
2019-12-02 21:00:00 3.7 18 Este 34 Este 0 -- -- 78
2019-12-02 20:00:00 4.4 23 Este 38 Este 0 -- -- 77
2019-12-02 19:00:00 5.4 24 Este 41 Nordeste 0 -- -- 78
2019-12-02 18:00:00 6.6 24 Este 44 Este 0 -- -- 77
2019-12-02 17:00:00 8.4 29 Este 44 Este 0 -- -- 70
2019-12-02 16:00:00 9 26 Este 45 Este 0 -- -- 70
2019-12-02 15:00:00 10.1 26 Este 37 Este 0 -- -- 68
2019-12-02 14:00:00 9 27 Este 45 Nordeste 0 -- -- 72
2019-12-02 13:00:00 9 33 Nordeste 47 Nordeste 0 -- -- 70
2019-12-02 12:00:00 8.4 28 Este 43 Nordeste 0 -- -- 75
2019-12-02 11:00:00 7.4 19 Nordeste 31 Nordeste 0 -- -- 78
2019-12-02 10:00:00 5 12 Norte 21 Nordeste 0 -- -- 82
2019-12-02 09:00:00 3.1 13 Norte 21 Norte 0 -- -- 85
2019-12-02 08:00:00 1.1 5 Noroeste 10 Norte 0 -- -- 92
2019-12-02 07:00:00 1.6 7 Norte 15 Norte 0 -- -- 90
2019-12-02 06:00:00 1.8 7 Norte 13 Norte 0 -- -- 92
2019-12-02 05:00:00 2.2 3 Norte 12 Norte 0 -- -- 90
2019-12-02 04:00:00 3.4 8 Nordeste 22 Nordeste 0 -- -- 86
2019-12-02 03:00:00 3.7 11 Norte 23 Norte 0 -- -- 85
2019-12-02 02:00:00 4.5 12 Norte 20 Norte 0 -- -- 85
2019-12-02 01:00:00 5.1 9 Nordeste 16 Nordeste 0 -- -- 88
2019-12-02 00:00:00 5.2 8 Nordeste 18 Nordeste 0 -- -- 87
2019-12-01 23:00:00 6.2 12 Nordeste 20 Nordeste 0 -- -- 84
2019-12-01 22:00:00 6.6 13 Nordeste 22 Nordeste 0 -- -- 82
2019-12-01 21:00:00 5.7 9 Norte 14 Norte 0 -- -- 91
2019-12-01 20:00:00 6.5 10 Norte 15 Norte 0 -- -- 89
2019-12-01 19:00:00 5.1 2 Norte 8 Nordeste 0 -- -- 91
2019-12-01 18:00:00 6.3 7 Nordeste 22 Nordeste 0 -- -- 87
2019-12-01 17:00:00 7.4 17 Nordeste 31 Nordeste 0 -- -- 85
2019-12-01 16:00:00 8.5 26 Nordeste 34 Nordeste 0 -- -- 81
2019-12-01 15:00:00 8.5 21 Nordeste 33 Nordeste 0 -- -- 85
2019-12-01 14:00:00 8.1 13 Norte 19 Nordeste 0 -- -- 90
2019-12-01 13:00:00 8.4 11 Nordeste 18 Nordeste 0 -- -- 86
2019-12-01 12:00:00 7.9 10 Norte 15 Norte 0 -- -- 87
2019-12-01 11:00:00 7.6 10 Norte 16 Norte 0.2 -- -- 92
2019-12-01 10:00:00 6.9 0 Calma 9 Sudoeste 0 -- -- 94
2019-12-01 09:00:00 6.6 5 Sur 14 Sur 0.4 -- -- 96
2019-12-01 08:00:00 6.5 7 Sudoeste 21 Sur 2.2 -- -- 95
2019-12-01 07:00:00 6.6 17 Sur 24 Sur 1 -- -- 95
2019-12-01 06:00:00 6.3 17 Sur 26 Sur 0.8 -- -- 95
2019-12-01 05:00:00 6.2 16 Sur 29 Sur 0.4 -- -- 93
2019-12-01 04:00:00 6.3 20 Sur 30 Sur 0.8 -- -- 94
2019-12-01 03:00:00 6.9 12 Sur 22 Sur 0.2 -- -- 92
2019-12-01 02:00:00 6.8 14 Sur 22 Sudoeste 0 -- -- 91
2019-12-01 01:00:00 6.3 15 Sur 22 Sur 0 -- -- 91
2019-12-01 00:00:00 5.8 15 Sur 25 Sudoeste 0 -- -- 92
2019-11-30 23:00:00 4.9 8 Sudeste 19 Sudoeste 0 -- -- 90
2019-11-30 22:00:00 5.1 8 Sudoeste 15 Sudoeste 0 -- -- 90
2019-11-30 21:00:00 6.1 14 Sudoeste 24 Sudoeste 0 -- -- 86
2019-11-30 20:00:00 6.8 3 Noroeste 12 Oeste 0 -- -- 83
2019-11-30 19:00:00 7.2 10 Oeste 23 Sudoeste 0 -- -- 88
2019-11-30 18:00:00 8.8 13 Sudoeste 24 Sudoeste 0 -- -- 83
2019-11-30 17:00:00 9.8 18 Sudoeste 24 Sudoeste 0 -- -- 78
2019-11-30 16:00:00 9.5 15 Oeste 35 Oeste 0 -- -- 81
2019-11-30 15:00:00 10.5 22 Oeste 37 Noroeste 0 -- -- 83
2019-11-30 14:00:00 10.7 25 Oeste 47 Oeste 0.2 -- -- 85
2019-11-30 13:00:00 11.2 32 Oeste 45 Oeste 0 -- -- 85
2019-11-30 12:00:00 11.1 24 Oeste 55 Oeste 0 -- -- 91
2019-11-30 11:00:00 12.5 21 Sudoeste 46 Sudoeste 0.4 -- -- 93
2019-11-30 10:00:00 12.2 24 Sudoeste 39 Sudoeste 0.2 -- -- 94
2019-11-30 09:00:00 12.1 24 Sudoeste 40 Sudoeste 1.2 -- -- 95
2019-11-30 08:00:00 12 27 Sudoeste 40 Sur 0.8 -- -- 94
2019-11-30 07:00:00 11.7 23 Sudoeste 37 Sudoeste 1 -- -- 95
2019-11-30 06:00:00 11.7 22 Sudoeste 37 Sudoeste 0.2 -- -- 94
2019-11-30 05:00:00 11.9 21 Sudoeste 35 Sudoeste 0 -- -- 92
2019-11-30 04:00:00 12.1 18 Sudoeste 34 Sudoeste 0 -- -- 92
2019-11-30 03:00:00 12 21 Sudoeste 37 Sudoeste 0 -- -- 93
2019-11-30 02:00:00 12.3 23 Sudoeste 37 Sudoeste 0.2 -- -- 93
2019-11-30 01:00:00 12.2 24 Sudoeste 36 Sudoeste 0.2 -- -- 95
2019-11-30 00:00:00 11.2 9 Sudoeste 22 Sudoeste 0.8 -- -- 99
2019-11-29 23:00:00 10.4 3 Este 8 Oeste 0.6 -- -- 95
2019-11-29 22:00:00 10.9 6 Oeste 15 Oeste 0.4 -- -- 92
2019-11-29 21:00:00 11.3 8 Sudoeste 18 Sudoeste 0.2 -- -- 93
2019-11-29 20:00:00 11.6 6 Sur 9 Sur 0.2 -- -- 92
2019-11-29 19:00:00 11.8 0 Calma 9 Oeste 0 -- -- 88
2019-11-29 18:00:00 12.5 3 Sudoeste 19 Oeste 0 -- -- 85
2019-11-29 17:00:00 13.7 10 Oeste 23 Oeste 0 -- -- 78
2019-11-29 16:00:00 14.1 10 Oeste 26 Sudoeste 0 -- -- 77
2019-11-29 15:00:00 14.6 14 Oeste 22 Oeste 0 -- -- 74
2019-11-29 14:00:00 13.4 10 Oeste 22 Oeste 0 -- -- 83
2019-11-29 13:00:00 12.6 12 Oeste 20 Oeste 0 -- -- 88
2019-11-29 12:00:00 11.8 6 Sudoeste 13 Oeste 0 -- -- 91
2019-11-29 11:00:00 10.8 4 Oeste 16 Sudoeste 0 -- -- 95
2019-11-29 10:00:00 10.1 5 Noroeste 9 Sudoeste 0.2 -- -- 97
2019-11-29 09:00:00 9.6 6 Sudoeste 10 Oeste 0 -- -- 96
2019-11-29 08:00:00 9.5 0 Calma 9 Noroeste 0 -- -- 96
2019-11-29 07:00:00 9.3 4 Noroeste 10 Noroeste 0 -- -- 96
2019-11-29 06:00:00 9.4 2 Sur 13 Oeste 0 -- -- 95
2019-11-29 05:00:00 10.1 13 Oeste 19 Oeste 0 -- -- 94
2019-11-29 04:00:00 10.3 14 Oeste 23 Oeste 0 -- -- 94
2019-11-29 03:00:00 10.5 15 Oeste 19 Oeste 0 -- -- 95
2019-11-29 02:00:00 10.4 5 Oeste 20 Sudoeste 0 -- -- 95
2019-11-29 01:00:00 11.6 16 Sudoeste 21 Sudoeste 0.6 -- -- 96
2019-11-29 00:00:00 11.6 13 Sudoeste 24 Sudoeste 0 -- -- 95
2019-11-28 23:00:00 11.5 15 Sudoeste 25 Oeste 0.4 -- -- 95
2019-11-28 22:00:00 11.3 17 Sudoeste 35 Sudoeste 0.4 -- -- 94
2019-11-28 21:00:00 11.2 25 Sudoeste 41 Sudoeste 0.4 -- -- 94
2019-11-28 20:00:00 11 28 Sudoeste 41 Sudoeste 1 -- -- 94
2019-11-28 19:00:00 10.9 23 Sudoeste 37 Sudoeste 0.2 -- -- 92
2019-11-28 18:00:00 10.9 18 Sudoeste 33 Sudoeste 0.2 -- -- 92
2019-11-28 17:00:00 11.2 20 Sudoeste 35 Oeste 0.4 -- -- 92
2019-11-28 16:00:00 12.5 31 Sudoeste 49 Sudoeste 0 -- -- 81
2019-11-28 15:00:00 12.6 27 Sudoeste 43 Oeste 0 -- -- 80
2019-11-28 14:00:00 13 30 Sudoeste 45 Sudoeste 0 -- -- 80
2019-11-28 13:00:00 11.8 22 Sudoeste 39 Sudoeste 0 -- -- 87
2019-11-28 12:00:00 11.2 21 Sudoeste 39 Sudoeste 0 -- -- 90
2019-11-28 11:00:00 11.1 26 Sudoeste 40 Sudoeste 0 -- -- 91
2019-11-28 10:00:00 10.6 31 Sudoeste 48 Sudoeste 0 -- -- 92
2019-11-28 09:00:00 10.1 26 Sudoeste 41 Sudoeste 0 -- -- 93
2019-11-28 08:00:00 9.7 23 Sudoeste 39 Sudoeste 0.2 -- -- 94
2019-11-28 07:00:00 9.7 22 Sudoeste 36 Sudoeste 0 -- -- 94
2019-11-28 06:00:00 9.6 23 Sudoeste 41 Sudoeste 0 -- -- 94
2019-11-28 05:00:00 9.5 25 Sudoeste 40 Sudoeste 0 -- -- 94
2019-11-28 04:00:00 9.4 29 Sudoeste 44 Sudoeste 0.2 -- -- 93
2019-11-28 03:00:00 9.5 19 Sudoeste 30 Sudoeste 0 -- -- 92
2019-11-28 02:00:00 9.7 23 Oeste 39 Oeste 0 -- -- 89
2019-11-28 01:00:00 9.5 26 Oeste 40 Sudoeste 0 -- -- 90
2019-11-28 00:00:00 9.1 22 Oeste 40 Sudoeste 0 -- -- 91
2019-11-27 23:00:00 8.8 21 Sudoeste 39 Sudoeste 0.2 -- -- 92
2019-11-27 22:00:00 8.8 28 Sudoeste 44 Sudoeste 0 -- -- 91
2019-11-27 21:00:00 8.8 31 Sudoeste 44 Sudoeste 0 -- -- 91
2019-11-27 20:00:00 8.9 24 Sudoeste 46 Sudoeste 0 -- -- 89
2019-11-27 19:00:00 8.9 24 Sudoeste 33 Sudoeste 0 -- -- 89
2019-11-27 18:00:00 9.9 18 Oeste 39 Oeste 0 -- -- 82
2019-11-27 17:00:00 10.4 24 Oeste 40 Oeste 0 -- -- 82
2019-11-27 16:00:00 10.4 30 Sudoeste 44 Sudoeste 0.4 -- -- 86
2019-11-27 15:00:00 10 23 Sudoeste 43 Sudoeste 0.4 -- -- 90
2019-11-27 14:00:00 10.4 23 Sudoeste 46 Sudoeste 0 -- -- 86
2019-11-27 06:00:00 -- -- -- -- -- -- -- -- --
2019-11-27 05:00:00 -- -- -- -- -- -- -- -- --
2019-11-27 04:00:00 7.7 23 Oeste 39 Oeste 0 -- -- 86
2019-11-27 03:00:00 7.4 23 Sudoeste 43 Sudoeste 0 -- -- 85
2019-11-27 02:00:00 7.8 31 Sudoeste 42 Sudoeste 0 -- -- 85
2019-11-27 01:00:00 8.6 25 Oeste 52 Oeste 0 -- -- 89
2019-11-27 00:00:00 9 39 Oeste 55 Oeste 0 -- -- 86
2019-11-26 23:00:00 9.3 28 Oeste 53 Oeste 0 -- -- 88
2019-11-26 22:00:00 9.6 33 Sudoeste 46 Oeste 0 -- -- 89
2019-11-26 21:00:00 9.9 30 Sudoeste 61 Sudoeste 0.8 -- -- 89
2019-11-26 20:00:00 10.6 39 Oeste 56 Sudoeste 2.2 -- -- 85
2019-11-26 19:00:00 12 39 Sudoeste 62 Sudoeste 0 -- -- 82
2019-11-26 18:00:00 12.7 40 Sudoeste 64 Sudoeste 0 -- -- 76
2019-11-26 17:00:00 13.8 41 Sudoeste 73 Sudoeste 0 -- -- 76
2019-11-26 16:00:00 13.8 39 Oeste 62 Oeste 0 -- -- 85
2019-11-26 15:00:00 14.5 35 Sudoeste 54 Sudoeste 0 -- -- 87
2019-11-26 14:00:00 13.7 28 Sudoeste 43 Sudoeste 0.4 -- -- 93
2019-11-26 13:00:00 13.2 26 Sudoeste 39 Sudoeste 0.4 -- -- 94
2019-11-26 12:00:00 13 23 Sudoeste 40 Sudoeste 0 -- -- 91
2019-11-26 11:00:00 12.4 21 Sudoeste 41 Sudoeste 0 -- -- 93
2019-11-26 10:00:00 12.1 27 Sudoeste 44 Sudoeste 0 -- -- 93
2019-11-26 09:00:00 11.8 22 Sudoeste 33 Sudoeste 0 -- -- 94
2019-11-26 08:00:00 11.5 15 Sudoeste 28 Sudoeste 0.6 -- -- 96
2019-11-26 07:00:00 10.6 11 Sur 26 Sudoeste 0.2 -- -- 96
2019-11-26 06:00:00 10.3 18 Sudoeste 31 Sudoeste 0 -- -- 95
2019-11-26 05:00:00 10.1 19 Sudoeste 28 Sudoeste 0 -- -- 94
2019-11-26 04:00:00 10.1 18 Sudoeste 33 Sudoeste 0 -- -- 94
2019-11-26 03:00:00 10.4 24 Sudoeste 32 Sudoeste 0 -- -- 91
2019-11-26 02:00:00 10.4 18 Sudoeste 28 Sur 0 -- -- 91
2019-11-26 01:00:00 10.1 4 Oeste 12 Sudoeste 0 -- -- 91
2019-11-26 00:00:00 9.7 5 Este 17 Oeste 0 -- -- 91
2019-11-25 23:00:00 10 8 Sudoeste 22 Sudoeste 0 -- -- 88
2019-11-25 22:00:00 9.8 10 Sudoeste 18 Sudoeste 0 -- -- 88
2019-11-25 21:00:00 10 9 Sudoeste 19 Sudoeste 0 -- -- 85
2019-11-25 20:00:00 10.5 10 Sudoeste 34 Oeste 0 -- -- 84
2019-11-25 19:00:00 10.8 15 Oeste 23 Oeste 0 -- -- 83
2019-11-25 18:00:00 11.2 11 Oeste 36 Sudoeste 0 -- -- 81
2019-11-25 17:00:00 12 21 Oeste 32 Sudoeste 0 -- -- 80
2019-11-25 16:00:00 12.4 23 Oeste 34 Oeste 0 -- -- 77
2019-11-25 15:00:00 12.6 24 Oeste 42 Oeste 0 -- -- 76
2019-11-25 14:00:00 12.5 27 Oeste 39 Oeste 0 -- -- 77
2019-11-25 13:00:00 12.2 21 Oeste 40 Oeste 0 -- -- 81
2019-11-25 12:00:00 12.2 18 Oeste 29 Oeste 0 -- -- 83
2019-11-25 11:00:00 11.3 21 Oeste 31 Oeste 0 -- -- 85
2019-11-25 10:00:00 10.9 12 Oeste 31 Oeste 0 -- -- 92
2019-11-25 09:00:00 10.4 10 Oeste 30 Oeste 0 -- -- 93
2019-11-25 08:00:00 10.1 19 Oeste 28 Sudoeste 0.2 -- -- 94
2019-11-25 07:00:00 10.2 16 Sudoeste 25 Sudoeste 0 -- -- 94
2019-11-25 06:00:00 10.4 12 Sudoeste 17 Sudoeste 0 -- -- 92
2019-11-25 05:00:00 10.5 6 Sur 46 Sudoeste 0 -- -- 89
2019-11-25 04:00:00 10.8 29 Oeste 37 Oeste 0 -- -- 90
2019-11-25 03:00:00 10.9 12 Oeste 22 Oeste 0 -- -- 91
2019-11-25 02:00:00 10.7 15 Sudoeste 39 Oeste 0 -- -- 90
2019-11-25 01:00:00 11 24 Oeste 35 Oeste 0 -- -- 93
2019-11-25 00:00:00 10.1 18 Sudoeste 28 Sudoeste 0.8 -- -- 95
2019-11-24 23:00:00 9.5 13 Sudoeste 27 Sudoeste 2.4 -- -- 95
2019-11-24 22:00:00 9.4 15 Sudoeste 27 Sudoeste 0.6 -- -- 94
2019-11-24 21:00:00 9 17 Sudoeste 32 Sudoeste 0 -- -- 93
2019-11-24 20:00:00 8.8 21 Sudoeste 35 Sudoeste 0 -- -- 92
2019-11-24 19:00:00 8.8 25 Sudoeste 39 Sudoeste 0 -- -- 91
2019-11-24 18:00:00 8.8 20 Sudoeste 35 Sudoeste 0 -- -- 90
2019-11-24 17:00:00 9.2 18 Sudoeste 27 Sudoeste 0 -- -- 82
2019-11-24 16:00:00 8.9 17 Sudoeste 35 Sudoeste 0 -- -- 81
2019-11-24 15:00:00 9.1 18 Sudoeste 35 Sudoeste 0 -- -- 80
2019-11-24 14:00:00 7.8 18 Sudoeste 29 Sudoeste 0 -- -- 84
2019-11-24 13:00:00 7.4 19 Sudoeste 40 Sudoeste 0 -- -- 85
2019-11-24 12:00:00 7.1 23 Sudoeste 39 Sudoeste 0 -- -- 86
2019-11-24 11:00:00 6.7 24 Oeste 41 Oeste 0 -- -- 86
2019-11-24 10:00:00 4.8 4 Sudoeste 23 Sudoeste 0 -- -- 92
2019-11-24 09:00:00 4.4 8 Sudoeste 24 Sudoeste 0 -- -- 91
2019-11-24 08:00:00 3.8 10 Oeste 18 Sudoeste 0 -- -- 90
2019-11-24 07:00:00 3.8 12 Sudoeste 30 Sudoeste 0 -- -- 90
2019-11-24 06:00:00 3.7 18 Oeste 33 Oeste 0 -- -- 89
2019-11-24 05:00:00 4 15 Oeste 27 Sudoeste 0 -- -- 89
2019-11-24 04:00:00 3.9 13 Oeste 21 Noroeste 0 -- -- 89
2019-11-24 03:00:00 4.4 7 Oeste 35 Oeste 0 -- -- 89
2019-11-24 02:00:00 5.2 19 Oeste 36 Oeste 0 -- -- 88
2019-11-24 01:00:00 5.1 21 Oeste 30 Oeste 0 -- -- 90
2019-11-24 00:00:00 4.7 10 Oeste 28 Oeste 0 -- -- 90
2019-11-23 23:00:00 5.6 19 Oeste 41 Oeste 0 -- -- 86
2019-11-23 22:00:00 5.1 18 Oeste 30 Oeste 0 -- -- 86
2019-11-23 21:00:00 5.5 23 Oeste 28 Oeste 0 -- -- 84
2019-11-23 20:00:00 6.2 17 Oeste 34 Oeste 0 -- -- 79
2019-11-23 19:00:00 7.2 27 Oeste 37 Sudoeste 0 -- -- 74
2019-11-23 18:00:00 8.1 19 Sudoeste 45 Oeste 0 -- -- 69
2019-11-23 17:00:00 9.7 30 Oeste 44 Oeste 0 -- -- 58
2019-11-23 16:00:00 10.1 26 Oeste 39 Oeste 0 -- -- 60
2019-11-23 15:00:00 11.4 22 Oeste 40 Noroeste 0 -- -- 57
2019-11-23 14:00:00 10.9 18 Oeste 44 Oeste 0 -- -- 56
2019-11-23 13:00:00 10.4 33 Oeste 48 Oeste 0 -- -- 63
2019-11-23 12:00:00 9.7 25 Oeste 41 Oeste 0 -- -- 66
2019-11-23 11:00:00 8.4 29 Oeste 43 Oeste 0 -- -- 70
2019-11-23 10:00:00 6.3 35 Oeste 49 Sudoeste 0 -- -- 77
2019-11-23 09:00:00 4.2 25 Oeste 45 Sudoeste 0 -- -- 82
2019-11-23 08:00:00 4.3 23 Oeste 45 Oeste 0 -- -- 79
2019-11-23 07:00:00 4.8 34 Oeste 50 Oeste 0 -- -- 77
2019-11-23 06:00:00 4.9 33 Oeste 50 Sudoeste 0 -- -- 78
2019-11-23 05:00:00 5.4 38 Oeste 60 Oeste 0 -- -- 79
2019-11-23 04:00:00 5.6 41 Oeste 59 Oeste 0 -- -- 83
2019-11-23 03:00:00 5.8 37 Oeste 60 Oeste 0 -- -- 82
2019-11-23 02:00:00 5.9 39 Oeste 72 Oeste 0 -- -- 81
2019-11-23 01:00:00 6 47 Oeste 75 Oeste 0 -- -- 80
2019-11-23 00:00:00 6.7 45 Oeste 71 Oeste 0 -- -- 81
2019-11-22 23:00:00 7 40 Oeste 62 Oeste 0.4 -- -- 85
2019-11-22 22:00:00 8 33 Oeste 51 Sudoeste 0.2 -- -- 89
2019-11-22 21:00:00 8 31 Oeste 48 Oeste 4.4 -- -- 91
2019-11-22 20:00:00 8.3 33 Sudoeste 51 Sudoeste 1.8 -- -- 91
2019-11-22 19:00:00 8.1 28 Sudoeste 40 Sudoeste 0.8 -- -- 90
2019-11-22 18:00:00 8.1 24 Sudoeste 51 Sudoeste 0.2 -- -- 87
2019-11-22 17:00:00 9 36 Oeste 53 Oeste 0 -- -- 77
2019-11-22 16:00:00 11.4 34 Oeste 59 Oeste 0 -- -- 70
2019-11-22 15:00:00 11.7 35 Oeste 66 Sudoeste 0 -- -- 75
2019-11-22 14:00:00 13 43 Oeste 63 Oeste 0.2 -- -- 76
2019-11-22 13:00:00 11.3 36 Sudoeste 75 Sudoeste 0.2 -- -- 91
2019-11-22 12:00:00 10.8 42 Sudoeste 64 Sudoeste 0.4 -- -- 90
2019-11-22 11:00:00 10.6 34 Sudoeste 52 Sur 0.2 -- -- 88
2019-11-22 10:00:00 9.4 33 Sur 53 Sudoeste 0.2 -- -- 89
2019-11-22 09:00:00 8.3 30 Sur 52 Sur 0.2 -- -- 92
2019-11-22 08:00:00 7.6 26 Sur 44 Sur 0.2 -- -- 92
2019-11-22 07:00:00 7.4 22 Sur 41 Sur 1.4 -- -- 92
2019-11-22 06:00:00 7.6 23 Sur 42 Sudoeste 1 -- -- 91
2019-11-22 05:00:00 7.8 26 Sudoeste 44 Sudoeste 0.4 -- -- 89
2019-11-22 04:00:00 7.5 15 Sudoeste 22 Sudoeste 0.2 -- -- 91
2019-11-22 03:00:00 7.4 12 Sudoeste 23 Sudoeste 0 -- -- 91
2019-11-22 02:00:00 7 13 Sudoeste 23 Sudoeste 0 -- -- 93
2019-11-22 01:00:00 6.6 14 Sudoeste 21 Sudoeste 0 -- -- 92
2019-11-22 00:00:00 5.4 8 Sudoeste 13 Sudoeste 0 -- -- 94
2019-11-21 23:00:00 5.5 7 Sudoeste 11 Sudoeste 0 -- -- 93
2019-11-21 22:00:00 5.3 4 Sudoeste 13 Sur 0 -- -- 90
2019-11-21 21:00:00 5.1 9 Sudoeste 12 Sudoeste 0 -- -- 92
2019-11-21 20:00:00 3.7 3 Oeste 9 Sudoeste 0 -- -- 90
2019-11-21 19:00:00 5.2 9 Sudoeste 13 Sudoeste 0 -- -- 83
2019-11-21 18:00:00 7.4 9 Sudoeste 22 Oeste 0 -- -- 75
2019-11-21 17:00:00 8.8 18 Oeste 31 Oeste 0 -- -- 69
2019-11-21 16:00:00 9.7 21 Sudoeste 39 Sudoeste 0 -- -- 64
2019-11-21 15:00:00 10.6 21 Oeste 36 Oeste 0 -- -- 63
2019-11-21 14:00:00 10.3 23 Oeste 34 Oeste 0 -- -- 64
2019-11-21 13:00:00 10 19 Oeste 28 Oeste 0 -- -- 66
2019-11-21 12:00:00 8.9 18 Oeste 28 Oeste 0 -- -- 75
2019-11-21 11:00:00 7.5 16 Oeste 24 Oeste 0 -- -- 84
2019-11-21 10:00:00 6.1 15 Oeste 23 Oeste 0 -- -- 90
2019-11-21 09:00:00 6 10 Oeste 20 Sudoeste 0.2 -- -- 93
2019-11-21 08:00:00 -- -- -- -- -- -- -- -- --
2019-11-21 07:00:00 -- -- -- -- -- -- -- -- --
2019-11-21 06:00:00 -- -- -- -- -- -- -- -- --
2019-11-21 05:00:00 -- -- -- -- -- -- -- -- --
2019-11-21 04:00:00 -- -- -- -- -- -- -- -- --
2019-11-21 03:00:00 -- -- -- -- -- -- -- -- --
2019-11-21 02:00:00 -- -- -- -- -- -- -- -- --
2019-11-21 01:00:00 -- -- -- -- -- -- -- -- --
2019-11-21 00:00:00 -- -- -- -- -- -- -- -- --
2019-11-20 23:00:00 -- -- -- -- -- -- -- -- --
2019-11-20 22:00:00 -- -- -- -- -- -- -- -- --
2019-11-20 21:00:00 -- -- -- -- -- -- -- -- --
2019-11-20 20:00:00 -- -- -- -- -- -- -- -- --
2019-11-20 19:00:00 6.6 13 Sudoeste 19 Sudoeste 0.6 -- -- 91
2019-11-20 18:00:00 6.9 11 Sudoeste 25 Sudoeste 0 -- -- 88
2019-11-20 17:00:00 7.3 17 Sudoeste 30 Sudoeste 0 -- -- 87
2019-11-20 16:00:00 6.9 15 Sudoeste 33 Sudoeste 0 -- -- 91
2019-11-20 15:00:00 6.5 15 Sudoeste 31 Sudoeste 0.2 -- -- 91
2019-11-20 14:00:00 6.5 18 Sudoeste 26 Sudoeste 0.2 -- -- 93
2019-11-20 13:00:00 6.3 18 Sudoeste 30 Sudoeste 0 -- -- 91
2019-11-20 12:00:00 6.3 17 Sudoeste 28 Sudoeste 0 -- -- 91
2019-11-20 11:00:00 6.2 12 Sudoeste 26 Sudoeste 0.6 -- -- 93
2019-11-20 10:00:00 6.2 16 Sudoeste 24 Sudoeste 0.6 -- -- 94
2019-11-20 09:00:00 5.7 6 Sudoeste 11 Sudoeste 0.8 -- -- 96
2019-11-20 08:00:00 5.2 5 Sudeste 8 Sudeste 1.2 -- -- 96
2019-11-20 07:00:00 5.2 4 Sudeste 9 Sudeste 0.4 -- -- 96
2019-11-20 06:00:00 5.2 6 Sudeste 10 Sudeste 0 -- -- 95
2019-11-20 05:00:00 5.2 3 Sudeste 4 Sudeste 0.2 -- -- 94
2019-11-20 04:00:00 5.2 3 Sur 13 Sudoeste 0 -- -- 93
2019-11-20 03:00:00 5.4 0 Calma 9 Sudeste 0.4 -- -- 94
2019-11-20 02:00:00 5.6 2 Este 6 Sur 0 -- -- 93
2019-11-20 01:00:00 5.8 0 Calma 11 Oeste 0.6 -- -- 91
2019-11-20 00:00:00 6.4 6 Oeste 14 Sudoeste 0 -- -- 85
2019-11-19 23:00:00 6.2 2 Sudoeste -- -- 0 -- -- 85
2019-11-19 22:00:00 6.4 4 Sur 6 Sudoeste 0 -- -- 84
2019-11-19 21:00:00 6.7 3 Sudoeste 5 Oeste 0 -- -- 82
2019-11-19 20:00:00 7 0 Calma 6 Oeste 0 -- -- 80
2019-11-19 19:00:00 7.5 4 Oeste 8 Sudoeste 0 -- -- 75
2019-11-19 18:00:00 8.1 5 Sur 14 Sudoeste 0 -- -- 70
2019-11-19 17:00:00 8.5 10 Sudoeste 21 Sudoeste 0 -- -- 68
2019-11-19 16:00:00 8.6 12 Sudoeste 19 Sudoeste 0 -- -- 69
2019-11-19 15:00:00 8.2 10 Sudoeste 17 Sudoeste 0 -- -- 72
2019-11-19 14:00:00 7.8 9 Sudoeste 19 Este 0 -- -- 72
2019-11-19 13:00:00 6 8 Este 14 Este 0 -- -- 80
2019-11-19 12:00:00 4 5 Este 8 Este 0 -- -- 85
2019-11-19 11:00:00 2.6 0 Calma 4 Oeste 0 -- -- 95
2019-11-19 10:00:00 -0.4 2 Oeste 5 Oeste 0 -- -- 97
2019-11-19 09:00:00 -2.1 2 Noroeste 4 Noroeste 0 -- -- 96
2019-11-19 08:00:00 -2.7 0 Calma 3 Sudoeste 0 -- -- 95
2019-11-19 07:00:00 -2.7 0 Calma 0 Calma 0 -- -- 94
2019-11-19 06:00:00 -2.2 0 Calma 0 Calma 0 -- -- 94
2019-11-19 05:00:00 -1.5 0 Calma 4 Noroeste 0 -- -- 95
2019-11-19 04:00:00 -0.8 2 Oeste 6 Noroeste 0 -- -- 94
2019-11-19 03:00:00 -1 3 Noroeste 10 Oeste 0 -- -- 94
2019-11-19 02:00:00 -0.4 7 Oeste 10 Oeste 0 -- -- 93
2019-11-19 01:00:00 -0.1 7 Oeste 11 Noroeste 0 -- -- 93
2019-11-19 00:00:00 0.6 12 Oeste 14 Oeste 0 -- -- 93
2019-11-18 23:00:00 0.9 5 Oeste 11 Oeste 0 -- -- 90
2019-11-18 22:00:00 2.5 5 Noroeste 8 Este 0 -- -- 85
2019-11-18 21:00:00 4.2 5 Oeste 12 Oeste 0 -- -- 84
2019-11-18 20:00:00 4.1 6 Noroeste 9 Oeste 0 -- -- 86
2019-11-18 19:00:00 4.6 3 Oeste 9 Norte 0 -- -- 77
2019-11-18 18:00:00 8.3 8 Norte 20 Norte 0 -- -- 62
2019-11-18 17:00:00 10.7 14 Norte 25 Norte 0 -- -- 53
2019-11-18 16:00:00 11.1 11 Norte 23 Nordeste 0 -- -- 50
2019-11-18 15:00:00 10.4 11 Nordeste 36 Norte 0 -- -- 50
2019-11-18 14:00:00 11.2 12 Norte 24 Nordeste 0 -- -- 51
2019-11-18 13:00:00 10.9 15 Nordeste 29 Norte 0 -- -- 49
2019-11-18 12:00:00 9.8 15 Norte 29 Norte 0 -- -- 56
2019-11-18 11:00:00 8 16 Norte 24 Norte 0 -- -- 62
2019-11-18 10:00:00 5.3 2 Sudoeste 10 Oeste 0 -- -- 74
2019-11-18 09:00:00 1.2 9 Oeste 18 Noroeste 0 -- -- 89
2019-11-18 08:00:00 0.4 15 Noroeste 18 Noroeste 0 -- -- 90
2019-11-18 07:00:00 0.8 6 Oeste 12 Oeste 0 -- -- 86
2019-11-18 06:00:00 1 7 Noroeste 10 Oeste 0 -- -- 88
2019-11-18 05:00:00 0.7 10 Oeste 12 Oeste 0 -- -- 92
2019-11-18 04:00:00 0.7 2 Sudoeste 13 Noroeste 0 -- -- 89
2019-11-18 03:00:00 1.6 11 Noroeste 20 Noroeste 0 -- -- 88
2019-11-18 02:00:00 2.2 14 Noroeste 18 Noroeste 0 -- -- 88
2019-11-18 01:00:00 2.9 11 Noroeste 24 Oeste 0 -- -- 87
2019-11-18 00:00:00 3.9 17 Oeste 25 Oeste 0 -- -- 84
2019-11-17 23:00:00 4.4 17 Oeste 30 Oeste 0 -- -- 81
2019-11-17 22:00:00 4 11 Oeste 22 Noroeste 0 -- -- 80
2019-11-17 21:00:00 4.1 12 Oeste 20 Oeste 0 -- -- 78
2019-11-17 20:00:00 5.4 18 Oeste 24 Oeste 0 -- -- 72
2019-11-17 19:00:00 5.5 13 Oeste 18 Oeste 0 -- -- 78
2019-11-17 18:00:00 8.2 15 Noroeste 35 Oeste 0 -- -- 69
2019-11-17 17:00:00 10.6 22 Noroeste 40 Noroeste 0 -- -- 61
2019-11-17 16:00:00 11.5 27 Oeste 47 Noroeste 0 -- -- 62
2019-11-17 15:00:00 10.6 24 Oeste 45 Oeste 0 -- -- 76
2019-11-17 14:00:00 10 27 Oeste 36 Oeste 0 -- -- 84
2019-11-17 13:00:00 8.2 25 Sudoeste 45 Sudoeste 0 -- -- 91
2019-11-17 12:00:00 7.8 33 Sudoeste 43 Sudoeste 0 -- -- 91
2019-11-17 11:00:00 6.4 29 Sudoeste 38 Sudoeste 0 -- -- 94
2019-11-17 10:00:00 5.3 18 Oeste 35 Sudoeste 0 -- -- 95
2019-11-17 09:00:00 4.9 7 Noroeste 35 Oeste 0 -- -- 94
2019-11-17 08:00:00 4.8 9 Noroeste 29 Oeste 0 -- -- 92
2019-11-17 07:00:00 4.5 6 Noroeste 23 Oeste 0 -- -- 91
2019-11-17 06:00:00 4.5 3 Noroeste 13 Noroeste 0 -- -- 88
2019-11-17 05:00:00 4.5 3 Este 21 Oeste 0 -- -- 85
2019-11-17 04:00:00 4.7 6 Este 28 Sudoeste 0 -- -- 84
2019-11-17 03:00:00 4.5 21 Sudoeste 37 Sudoeste 0 -- -- 84
2019-11-17 02:00:00 4.5 25 Oeste 38 Oeste 0 -- -- 85
2019-11-17 01:00:00 4.1 23 Sudoeste 37 Sudoeste 0 -- -- 86
2019-11-17 00:00:00 3.6 8 Oeste 28 Sudoeste 0 -- -- 85
2019-11-16 23:00:00 4.6 21 Oeste 32 Sudoeste 0 -- -- 78
2019-11-16 22:00:00 4.9 11 Oeste 31 Oeste 0 -- -- 74
2019-11-16 21:00:00 4.3 7 Oeste 18 Oeste 0 -- -- 75
2019-11-16 20:00:00 4.6 7 Oeste 26 Oeste 0 -- -- 77
2019-11-16 19:00:00 4.7 15 Oeste 29 Oeste 0 -- -- 75
2019-11-16 18:00:00 5.2 22 Oeste 34 Oeste 0 -- -- 70
2019-11-16 17:00:00 7.4 21 Oeste 40 Oeste 0 -- -- 61
2019-11-16 16:00:00 8.9 24 Oeste 33 Oeste 0 -- -- 55
2019-11-16 15:00:00 9.3 17 Oeste 27 Oeste 0 -- -- 50
2019-11-16 14:00:00 9.3 10 Oeste 28 Sudoeste 0 -- -- 54
2019-11-16 13:00:00 8.4 18 Oeste 31 Oeste 0 -- -- 60
2019-11-16 12:00:00 8.1 21 Oeste 29 Oeste 0 -- -- 60
2019-11-16 11:00:00 7.2 17 Oeste 24 Oeste 0 -- -- 62
2019-11-16 10:00:00 5.5 12 Oeste 18 Oeste 0 -- -- 66
2019-11-16 09:00:00 1 7 Noroeste 13 Oeste 0 -- -- 84
2019-11-16 08:00:00 -1 4 Noroeste 13 Oeste 0 -- -- 87
2019-11-16 07:00:00 -0.4 8 Noroeste 14 Oeste 0 -- -- 86
2019-11-16 06:00:00 -0.6 7 Oeste 14 Oeste 0 -- -- 86
2019-11-16 05:00:00 -0.5 10 Noroeste 17 Noroeste 0 -- -- 87
2019-11-16 04:00:00 0.4 14 Noroeste 17 Noroeste 0 -- -- 84
2019-11-16 03:00:00 0 12 Noroeste 16 Noroeste 0 -- -- 86
2019-11-16 02:00:00 -0.3 9 Noroeste 13 Noroeste 0 -- -- 89
2019-11-16 01:00:00 -0.2 11 Noroeste 15 Noroeste 0 -- -- 89
2019-11-16 00:00:00 -0.2 8 Oeste 12 Noroeste 0 -- -- 89
2019-11-15 23:00:00 0.9 10 Noroeste 15 Norte 0 -- -- 85
2019-11-15 22:00:00 1.8 11 Noroeste 17 Noroeste 0 -- -- 82
2019-11-15 21:00:00 2.9 6 Noroeste 14 Noroeste 0 -- -- 80
2019-11-15 20:00:00 4.4 9 Noroeste 18 Oeste 0 -- -- 74
2019-11-15 19:00:00 5 12 Oeste 16 Oeste 0 -- -- 69
2019-11-15 18:00:00 5.8 9 Oeste 30 Noroeste 0 -- -- 67
2019-11-15 17:00:00 7.6 11 Noroeste 28 Noroeste 0 -- -- 56
2019-11-15 16:00:00 7.6 24 Noroeste 40 Noroeste 0 -- -- 52
2019-11-15 15:00:00 8.6 23 Noroeste 39 Noroeste 0 -- -- 47
2019-11-15 14:00:00 8.4 19 Noroeste 35 Noroeste 0 -- -- 51
2019-11-15 13:00:00 8.2 18 Noroeste 33 Noroeste 0 -- -- 50
2019-11-15 12:00:00 7.1 22 Oeste 30 Oeste 0 -- -- 59
2019-11-15 11:00:00 5.9 21 Oeste 27 Oeste 0 -- -- 67
2019-11-15 10:00:00 4 11 Oeste 26 Oeste 0 -- -- 77
2019-11-15 09:00:00 4 10 Noroeste 26 Oeste 0 -- -- 74
2019-11-15 08:00:00 2.7 16 Oeste 26 Oeste 0 -- -- 78
2019-11-15 07:00:00 2.7 14 Oeste 21 Oeste 0 -- -- 81
2019-11-15 06:00:00 2.2 15 Oeste 21 Oeste 0 -- -- 84
2019-11-15 05:00:00 2.2 14 Oeste 27 Oeste 0 -- -- 83
2019-11-15 04:00:00 2.3 15 Oeste 32 Oeste 0 -- -- 85
2019-11-15 03:00:00 3.1 19 Oeste 28 Oeste 0 -- -- 82
2019-11-15 02:00:00 3 14 Oeste 21 Oeste 0 -- -- 85
2019-11-15 01:00:00 3.5 13 Noroeste 26 Oeste 0 -- -- 82
2019-11-15 00:00:00 3.4 16 Noroeste 24 Noroeste 0 -- -- 86
2019-11-14 23:00:00 3.5 15 Noroeste 29 Noroeste 0.4 -- -- 88
2019-11-14 22:00:00 3.4 8 Oeste 27 Noroeste 0.6 -- -- 91
2019-11-14 21:00:00 3.4 21 Noroeste 49 Noroeste 0.6 -- -- 89
2019-11-14 20:00:00 3.7 13 Oeste 39 Oeste 0 -- -- 85
2019-11-14 19:00:00 4.3 21 Oeste 44 Oeste 0 -- -- 83
2019-11-14 18:00:00 5 28 Noroeste 51 Noroeste 0 -- -- 80
2019-11-14 17:00:00 5.7 32 Oeste 54 Oeste 0 -- -- 80
2019-11-14 16:00:00 5.6 45 Oeste 58 Oeste 0 -- -- 81
2019-11-14 15:00:00 4.6 37 Oeste 55 Sudoeste 0.4 -- -- 88
2019-11-14 14:00:00 2.7 33 Oeste 54 Sudoeste 2.6 -- -- 91
2019-11-14 13:00:00 5.8 35 Oeste 53 Oeste 0 -- -- 73
2019-11-14 12:00:00 5.4 33 Oeste 54 Oeste 0 -- -- 72
2019-11-14 11:00:00 5.2 27 Oeste 50 Oeste 0 -- -- 76
2019-11-14 10:00:00 3.9 37 Oeste 53 Oeste 0 -- -- 83
2019-11-14 09:00:00 2.6 25 Sudoeste 35 Oeste 0 -- -- 88
2019-11-14 08:00:00 2.5 21 Oeste 37 Oeste 0 -- -- 85
2019-11-14 07:00:00 3.5 23 Oeste 37 Oeste 0 -- -- 78
2019-11-14 06:00:00 4.8 31 Oeste 44 Oeste 0 -- -- 74
2019-11-14 05:00:00 5.7 28 Oeste 42 Oeste 0.2 -- -- 79
2019-11-14 04:00:00 6.6 24 Oeste 43 Oeste 0 -- -- 85
2019-11-14 03:00:00 7.2 34 Oeste 46 Oeste 0.4 -- -- 88
2019-11-14 02:00:00 7.4 31 Oeste 57 Sudoeste 0 -- -- 87
2019-11-14 01:00:00 7.7 39 Sudoeste 56 Sudoeste 0 -- -- 80
2019-11-14 00:00:00 7.6 38 Sudoeste 56 Sudoeste 0 -- -- 80
2019-11-13 23:00:00 8.2 33 Oeste 55 Oeste 0 -- -- 75
2019-11-13 22:00:00 8.2 22 Oeste 35 Oeste 0 -- -- 72
2019-11-13 21:00:00 8.2 8 Oeste 37 Oeste 0 -- -- 76
2019-11-13 20:00:00 8.5 26 Oeste 39 Oeste 0 -- -- 73
2019-11-13 19:00:00 9.3 31 Sudoeste 51 Sudoeste 0 -- -- 72
2019-11-13 18:00:00 10.9 15 Oeste 39 Oeste 0 -- -- 72
2019-11-13 17:00:00 13.1 23 Oeste 39 Oeste 0 -- -- 64
2019-11-13 16:00:00 14.5 27 Oeste 37 Oeste 0 -- -- 62
2019-11-13 15:00:00 14.7 15 Oeste 24 Oeste 0 -- -- 62
2019-11-13 14:00:00 15.4 5 Oeste 12 Sur 0 -- -- 53
2019-11-13 13:00:00 14.9 3 Sudeste 17 Norte 0 -- -- 56
2019-11-13 12:00:00 13.7 7 Norte 18 Norte 0 -- -- 62
2019-11-13 11:00:00 12.7 13 Norte 21 Norte 0 -- -- 70
2019-11-13 10:00:00 11.6 4 Norte 17 Norte 0 -- -- 76
2019-11-13 09:00:00 8.5 9 Norte 12 Norte 0 -- -- 92
2019-11-13 08:00:00 7.9 3 Este 17 Noroeste 0 -- -- 88
2019-11-13 07:00:00 10.4 14 Noroeste 32 Oeste 0 -- -- 87
2019-11-13 06:00:00 11.5 24 Oeste 31 Oeste 0 -- -- 90
2019-11-13 05:00:00 12 19 Oeste 36 Oeste 0.2 -- -- 92
2019-11-13 04:00:00 11.8 27 Oeste 52 Sudoeste 0 -- -- 92
2019-11-13 03:00:00 11.4 27 Oeste 46 Oeste 0 -- -- 93
2019-11-13 02:00:00 11.1 30 Oeste 47 Sudoeste 0.4 -- -- 94
2019-11-13 01:00:00 10.8 31 Oeste 48 Oeste 0.8 -- -- 94
2019-11-13 00:00:00 10.3 28 Sudoeste 51 Sudoeste 0 -- -- 95
2019-11-12 23:00:00 9.2 34 Sudoeste 49 Sudoeste 0 -- -- 94
2019-11-12 22:00:00 8.5 32 Sudoeste 53 Sudoeste 0.6 -- -- 94
2019-11-12 21:00:00 8.1 31 Sudoeste 45 Sudoeste 0.6 -- -- 94
2019-11-12 20:00:00 7.7 12 Sudoeste 33 Sudoeste 0.4 -- -- 93
2019-11-12 19:00:00 7.8 22 Sudoeste 38 Sudoeste 0 -- -- 90
2019-11-12 18:00:00 8.2 26 Sudoeste 39 Sudoeste 0 -- -- 86
2019-11-12 17:00:00 8.8 24 Sudoeste 37 Sudoeste 0 -- -- 77
2019-11-12 16:00:00 9.1 29 Sudoeste 38 Sudoeste 0 -- -- 75
2019-11-12 15:00:00 10.3 23 Oeste 34 Oeste 0 -- -- 69
2019-11-12 14:00:00 10.3 23 Oeste 33 Sudoeste 0 -- -- 67
2019-11-12 13:00:00 10.3 19 Sudoeste 27 Oeste 0 -- -- 62
2019-11-12 12:00:00 9.9 15 Sudoeste 19 Sudoeste 0 -- -- 62
2019-11-12 11:00:00 8.6 12 Oeste 18 Oeste 0 -- -- 69
2019-11-12 10:00:00 6.9 9 Oeste 17 Oeste 0 -- -- 72
2019-11-12 09:00:00 5.3 9 Oeste 14 Oeste 0 -- -- 79
2019-11-12 08:00:00 4.8 5 Noroeste 14 Noroeste 0 -- -- 81
2019-11-12 07:00:00 4.3 3 Norte 12 Noroeste 0 -- -- 83
2019-11-12 06:00:00 5.2 8 Norte 15 Norte 0 -- -- 77
2019-11-12 05:00:00 5.3 8 Noroeste 23 Oeste 0 -- -- 78
2019-11-12 04:00:00 5.4 3 Noroeste 18 Noroeste 0 -- -- 78
2019-11-12 03:00:00 4.3 6 Oeste 12 Oeste 0 -- -- 87
2019-11-12 02:00:00 3.8 7 Oeste 9 Oeste 0 -- -- 90
2019-11-12 01:00:00 2.6 5 Oeste 8 Oeste 0 -- -- 92
2019-11-12 00:00:00 2.7 0 Calma 6 Sudeste 0 -- -- 87